createdAt,value
2023-03-12T06:03:00.094Z,5.52
2023-03-12T06:05:36.970Z,5.54
2023-03-12T06:08:08.761Z,5.52
2023-03-12T06:10:48.066Z,5.49
2023-03-12T06:13:25.035Z,5.50
2023-03-12T06:15:55.048Z,5.48
2023-03-12T06:18:33.984Z,5.53
2023-03-12T06:21:15.709Z,5.54
2023-03-12T06:23:53.046Z,5.52
2023-03-12T06:26:25.261Z,5.47
2023-03-12T06:29:03.035Z,5.51
2023-03-12T06:31:40.052Z,5.45
2023-03-12T06:34:13.259Z,5.47
2023-03-12T06:36:50.078Z,5.45
2023-03-12T06:39:20.070Z,5.47
2023-03-12T06:41:57.225Z,5.48
2023-03-12T06:44:34.080Z,5.43
2023-03-12T06:47:04.197Z,5.46
2023-03-12T06:49:44.079Z,5.40
2023-03-12T06:52:14.230Z,5.47
2023-03-12T06:54:51.169Z,5.41
2023-03-12T06:57:28.092Z,5.42
2023-03-12T06:59:58.233Z,5.48
2023-03-12T07:02:35.205Z,5.52
2023-03-12T07:05:16.158Z,5.51
2023-03-12T07:07:46.232Z,5.46
2023-03-12T07:10:23.110Z,5.51
2023-03-12T07:13:00.110Z,5.48
2023-03-12T07:15:30.189Z,5.51
2023-03-12T07:18:10.072Z,5.49
2023-03-12T07:20:54.126Z,5.56
2023-03-12T07:23:24.938Z,5.58
2023-03-12T07:26:02.097Z,5.59
2023-03-12T07:28:39.087Z,5.61
2023-03-12T07:31:09.579Z,5.63
2023-03-12T07:33:48.278Z,5.55
2023-03-12T07:36:21.053Z,5.65
2023-03-12T07:39:00.119Z,5.67
2023-03-12T07:41:30.180Z,5.71
2023-03-12T07:44:07.145Z,5.71
2023-03-12T07:46:37.439Z,5.79
2023-03-12T07:49:14.143Z,5.88
2023-03-12T07:51:53.201Z,5.89
2023-03-12T07:54:25.739Z,5.94
2023-03-12T07:57:02.375Z,6.02
2023-03-12T07:59:32.495Z,6.11
2023-03-12T08:02:09.337Z,6.08
2023-03-12T08:04:46.164Z,6.11
2023-03-12T08:07:19.129Z,6.14
2023-03-12T08:09:56.196Z,6.21
2023-03-12T08:12:33.160Z,6.26
2023-03-12T08:15:03.888Z,6.31
2023-03-12T08:17:41.115Z,6.26
2023-03-12T08:20:20.188Z,6.44
2023-03-12T08:22:52.856Z,6.49
2023-03-12T08:25:31.199Z,6.49
2023-03-12T08:28:01.356Z,6.52
2023-03-12T08:30:38.133Z,6.49
2023-03-12T08:33:14.236Z,6.52
2023-03-12T08:35:44.356Z,6.54
2023-03-12T08:38:23.159Z,6.60
2023-03-12T08:41:06.222Z,6.72
2023-03-12T08:43:36.502Z,6.83
2023-03-12T08:46:14.375Z,6.92
2023-03-12T08:48:44.612Z,7.05
2023-03-12T08:51:21.285Z,7.16
2023-03-12T08:53:53.872Z,7.32
2023-03-12T08:56:30.217Z,7.39
2023-03-12T08:59:09.939Z,7.44
2023-03-12T09:01:43.631Z,7.51
2023-03-12T09:04:20.257Z,7.60
2023-03-12T09:06:50.310Z,7.64
2023-03-12T09:09:29.213Z,7.69
2023-03-12T09:11:59.526Z,7.74
2023-03-12T09:15:02.361Z,7.82
2023-03-12T09:17:33.280Z,7.85
2023-03-12T09:20:07.004Z,7.96
2023-03-12T09:22:44.234Z,8.04
2023-03-12T09:25:17.855Z,8.20
2023-03-12T09:27:57.274Z,8.36
2023-03-12T09:30:36.304Z,8.41
2023-03-12T09:33:06.540Z,8.50
2023-03-12T09:35:43.286Z,8.59
2023-03-12T09:38:24.286Z,8.74
2023-03-12T09:40:57.668Z,8.85
2023-03-12T09:43:41.283Z,8.95
2023-03-12T09:46:24.316Z,9.03
2023-03-12T09:48:59.665Z,9.12
2023-03-12T09:51:43.260Z,9.13
2023-03-12T09:54:34.291Z,9.25
2023-03-12T09:57:14.547Z,9.21
2023-03-12T09:59:51.378Z,9.32
2023-03-12T10:02:49.553Z,9.35
2023-03-12T10:05:35.260Z,9.41
2023-03-12T10:08:24.856Z,9.46
2023-03-12T10:11:08.274Z,9.40
2023-03-12T10:14:09.220Z,9.60
2023-03-12T10:17:04.361Z,9.65
2023-03-12T10:20:01.273Z,9.66
2023-03-12T10:22:49.520Z,9.78
2023-03-12T10:25:37.335Z,9.86
2023-03-12T10:28:20.086Z,10.01
2023-03-12T10:31:04.312Z,10.08
2023-03-12T10:33:46.036Z,10.21
2023-03-12T10:36:28.351Z,10.33
2023-03-12T10:39:05.321Z,10.48
2023-03-12T10:41:36.248Z,10.53
2023-03-12T10:44:18.323Z,10.52
2023-03-12T10:47:28.500Z,10.45
2023-03-12T10:50:20.407Z,10.57
2023-03-12T10:52:52.938Z,10.59
2023-03-12T10:55:36.474Z,10.59
2023-03-12T10:58:06.616Z,10.64
2023-03-12T11:00:43.316Z,10.71
2023-03-12T11:03:31.389Z,10.72
2023-03-12T11:06:04.318Z,10.79
2023-03-12T11:08:43.363Z,10.85
2023-03-12T11:11:13.861Z,10.91
2023-03-12T11:13:51.437Z,10.95
2023-03-12T11:16:32.346Z,10.94
2023-03-12T11:19:14.345Z,10.94
2023-03-12T11:22:01.642Z,10.98
2023-03-12T11:24:39.439Z,11.11
2023-03-12T11:27:21.359Z,11.13
2023-03-12T11:29:59.437Z,11.16
2023-03-12T11:32:36.156Z,11.21
2023-03-12T11:35:20.439Z,11.29
2023-03-12T11:38:03.924Z,11.26
2023-03-12T11:41:00.434Z,11.25
2023-03-12T11:43:45.526Z,11.34
2023-03-12T11:46:36.410Z,11.33
2023-03-12T11:49:26.252Z,11.40
2023-03-12T11:52:11.388Z,11.63
2023-03-12T11:55:24.259Z,11.69
2023-03-12T11:58:22.428Z,11.81
2023-03-12T12:01:00.570Z,11.98
2023-03-12T12:04:13.454Z,12.14
2023-03-12T12:07:05.472Z,12.36
2023-03-12T12:09:47.744Z,12.39
2023-03-12T12:12:47.468Z,12.56
2023-03-12T12:15:29.781Z,12.59
2023-03-12T12:18:18.486Z,12.68
2023-03-12T12:20:58.659Z,12.75
2023-03-12T12:23:48.545Z,12.78
2023-03-12T12:26:29.002Z,12.83
2023-03-12T12:29:28.452Z,12.81
2023-03-12T12:32:00.473Z,12.88
2023-03-12T12:35:02.585Z,12.89
2023-03-12T12:37:46.472Z,12.88
2023-03-12T12:40:32.491Z,12.97
2023-03-12T12:43:19.480Z,12.99
2023-03-12T12:45:59.643Z,13.02
2023-03-12T12:48:35.550Z,13.10
2023-03-12T12:51:14.516Z,13.29
2023-03-12T12:53:54.048Z,13.41
2023-03-12T12:56:38.521Z,13.55
2023-03-12T12:59:37.839Z,13.60
2023-03-12T13:02:26.517Z,13.65
2023-03-12T13:05:01.104Z,13.61
2023-03-12T13:07:44.564Z,13.57
2023-03-12T13:10:57.317Z,13.47
2023-03-12T13:13:43.629Z,13.51
2023-03-12T13:16:34.236Z,13.52
2023-03-12T13:19:29.604Z,13.60
2023-03-12T13:22:15.546Z,13.67
2023-03-12T13:25:00.551Z,13.74
2023-03-12T13:27:41.580Z,13.67
2023-03-12T13:30:52.178Z,13.79
2023-03-12T13:33:51.600Z,13.79
2023-03-12T13:36:28.603Z,13.90
2023-03-12T13:39:08.587Z,14.07
2023-03-12T13:41:40.765Z,14.28
2023-03-12T13:44:42.587Z,14.40
2023-03-12T13:47:29.305Z,14.55
2023-03-12T13:50:13.643Z,14.81
2023-03-12T13:52:50.469Z,14.78
2023-03-12T13:55:34.811Z,14.79
2023-03-12T13:58:12.478Z,14.80
